createdAt,value
2022-12-15T00:00:12.382Z,-2.86
2022-12-15T00:03:25.944Z,-3.25
2022-12-15T00:06:12.476Z,-3.51
2022-12-15T00:08:58.894Z,-2.22
2022-12-15T00:11:45.054Z,-0.60
2022-12-15T00:14:31.647Z,-0.40
2022-12-15T00:17:17.732Z,-0.33
2022-12-15T00:20:04.170Z,0.18
2022-12-15T00:22:50.599Z,0.61
2022-12-15T00:25:37.213Z,0.74
2022-12-15T00:28:23.841Z,0.97
2022-12-15T00:31:10.328Z,1.01
2022-12-15T00:33:56.717Z,1.00
2022-12-15T00:36:42.994Z,0.90
2022-12-15T00:39:10.667Z,0.94
2022-12-15T00:41:38.327Z,1.06
2022-12-15T00:44:05.935Z,0.84
2022-12-15T00:46:52.258Z,-0.03
2022-12-15T00:49:46.127Z,-1.13
2022-12-15T00:52:33.971Z,-1.94
2022-12-15T00:55:20.902Z,-2.49
2022-12-15T00:58:07.058Z,-2.91
2022-12-15T01:00:53.413Z,-3.25
2022-12-15T01:03:42.450Z,-2.63
2022-12-15T01:06:32.371Z,-0.69
2022-12-15T01:09:20.020Z,0.26
2022-12-15T01:12:06.262Z,0.75
2022-12-15T01:14:52.944Z,0.87
2022-12-15T01:17:40.015Z,1.42
2022-12-15T01:20:21.095Z,2.15
2022-12-15T01:22:52.887Z,2.51
2022-12-15T01:25:23.673Z,1.60
2022-12-15T01:27:52.309Z,0.37
2022-12-15T01:30:23.037Z,-0.50
2022-12-15T01:32:51.322Z,-1.10
2022-12-15T01:35:20.308Z,-1.53
2022-12-15T01:37:50.044Z,-1.88
2022-12-15T01:40:38.409Z,-2.19
2022-12-15T01:43:18.761Z,-2.49
2022-12-15T01:46:01.021Z,-2.76
2022-12-15T01:48:34.482Z,-2.19
2022-12-15T01:51:11.463Z,0.17
2022-12-15T01:54:05.068Z,2.84
2022-12-15T01:56:38.316Z,4.19
2022-12-15T01:59:10.574Z,3.09
2022-12-15T02:01:38.434Z,1.62
2022-12-15T02:04:07.933Z,0.58
2022-12-15T02:06:36.531Z,-0.14
2022-12-15T02:09:05.074Z,-0.68
2022-12-15T02:11:35.487Z,-1.13
2022-12-15T02:14:06.462Z,-1.52
2022-12-15T02:16:57.162Z,-1.89
2022-12-15T02:19:34.276Z,-2.26
2022-12-15T02:22:08.023Z,-2.55
2022-12-15T02:24:58.094Z,-2.81
2022-12-15T02:27:53.207Z,-2.08
2022-12-15T02:30:45.182Z,-0.09
2022-12-15T02:33:27.615Z,0.47
2022-12-15T02:36:05.475Z,0.50
2022-12-15T02:38:38.080Z,0.47
2022-12-15T02:41:06.676Z,0.55
2022-12-15T02:43:38.794Z,0.85
2022-12-15T02:46:27.125Z,0.73
2022-12-15T02:49:15.042Z,0.73
2022-12-15T02:52:11.917Z,0.91
2022-12-15T02:55:03.259Z,0.82
2022-12-15T02:57:55.202Z,1.14
2022-12-15T03:00:23.101Z,1.40
2022-12-15T03:02:55.509Z,0.94
2022-12-15T03:05:24.623Z,0.01
2022-12-15T03:07:54.581Z,-0.71
2022-12-15T03:10:23.544Z,-1.24
2022-12-15T03:12:51.816Z,-1.64
2022-12-15T03:15:19.529Z,-2.01
2022-12-15T03:17:47.243Z,-2.34
2022-12-15T03:20:15.869Z,-2.59
2022-12-15T03:22:44.701Z,-2.81
2022-12-15T03:25:12.380Z,-2.50
2022-12-15T03:27:40.050Z,-1.03
2022-12-15T03:30:08.340Z,-0.28
2022-12-15T03:32:36.002Z,0.12
2022-12-15T03:35:04.096Z,0.47
2022-12-15T03:37:31.743Z,0.71
2022-12-15T03:39:59.484Z,0.99
2022-12-15T03:42:45.596Z,1.51
2022-12-15T03:45:13.260Z,2.51
2022-12-15T03:47:42.142Z,3.40
2022-12-15T03:50:11.068Z,2.62
2022-12-15T03:52:38.730Z,1.40
2022-12-15T03:55:07.599Z,0.44
2022-12-15T03:57:35.293Z,-0.31
2022-12-15T04:00:04.778Z,-0.86
2022-12-15T04:02:41.210Z,-1.34
2022-12-15T04:05:33.458Z,-1.70
2022-12-15T04:08:01.895Z,-2.04
2022-12-15T04:10:34.647Z,-2.29
2022-12-15T04:13:05.770Z,-1.89
2022-12-15T04:15:34.752Z,-0.17
2022-12-15T04:18:03.732Z,0.94
2022-12-15T04:20:33.081Z,1.69
2022-12-15T04:23:01.103Z,2.70
2022-12-15T04:25:47.840Z,4.46
2022-12-15T04:28:34.084Z,4.08
2022-12-15T04:31:34.079Z,2.41
2022-12-15T04:34:23.760Z,1.12
2022-12-15T04:37:12.058Z,0.29
2022-12-15T04:40:01.282Z,-0.38
2022-12-15T04:42:50.117Z,-0.93
2022-12-15T04:45:40.287Z,-1.39
2022-12-15T04:48:26.645Z,-1.77
2022-12-15T04:51:13.118Z,-2.09
2022-12-15T04:54:01.892Z,-2.39
2022-12-15T04:56:49.872Z,-2.66
2022-12-15T04:59:37.142Z,-1.74
2022-12-15T05:02:23.700Z,-0.00
2022-12-15T05:05:10.264Z,0.65
2022-12-15T05:07:56.452Z,0.89
2022-12-15T05:10:42.729Z,1.28
2022-12-15T05:13:29.368Z,2.06
2022-12-15T05:16:15.980Z,2.61
2022-12-15T05:19:02.152Z,1.95
2022-12-15T05:21:48.225Z,0.74
2022-12-15T05:24:34.679Z,-0.21
2022-12-15T05:27:21.121Z,-0.92
2022-12-15T05:30:07.665Z,-1.46
2022-12-15T05:32:35.294Z,-1.91
2022-12-15T05:35:02.951Z,-2.21
2022-12-15T05:37:30.625Z,-2.45
2022-12-15T05:39:58.323Z,-2.66
2022-12-15T05:42:25.935Z,-2.22
2022-12-15T05:44:53.559Z,-0.66
2022-12-15T05:47:21.224Z,0.20
2022-12-15T05:49:49.257Z,0.83
2022-12-15T05:52:17.092Z,1.61
2022-12-15T05:54:44.747Z,2.51
2022-12-15T05:57:12.435Z,2.88
2022-12-15T05:59:40.095Z,2.27
2022-12-15T06:02:07.726Z,1.21
2022-12-15T06:04:35.996Z,0.37
2022-12-15T06:07:03.724Z,-0.27
2022-12-15T06:09:31.423Z,-0.78
2022-12-15T06:11:59.199Z,-1.19
2022-12-15T06:14:26.785Z,-1.52
2022-12-15T06:16:54.506Z,-1.79
2022-12-15T06:19:22.166Z,-1.69
2022-12-15T06:21:49.900Z,-0.63
2022-12-15T06:24:17.853Z,-0.13
2022-12-15T06:26:46.001Z,0.19
2022-12-15T06:29:18.570Z,0.47
2022-12-15T06:31:46.801Z,0.92
2022-12-15T06:34:16.725Z,2.07
2022-12-15T06:36:44.462Z,2.86
2022-12-15T06:39:16.481Z,3.42
2022-12-15T06:41:44.558Z,3.16
2022-12-15T06:44:15.011Z,1.94
2022-12-15T06:46:43.316Z,0.87
2022-12-15T06:49:10.948Z,0.06
2022-12-15T06:51:38.702Z,-0.52
2022-12-15T06:54:06.318Z,-0.96
2022-12-15T06:56:36.204Z,-1.33
2022-12-15T06:59:05.457Z,-1.67
2022-12-15T07:01:33.451Z,-1.37
2022-12-15T07:04:02.847Z,0.34
2022-12-15T07:06:38.332Z,1.24
2022-12-15T07:09:13.800Z,2.25
2022-12-15T07:11:41.537Z,3.70
2022-12-15T07:14:10.101Z,3.96
2022-12-15T07:16:38.005Z,2.94
2022-12-15T07:19:05.857Z,1.65
2022-12-15T07:21:33.476Z,0.68
2022-12-15T07:24:02.189Z,-0.03
2022-12-15T07:26:30.536Z,-0.55
2022-12-15T07:28:58.298Z,-0.97
2022-12-15T07:31:25.993Z,-1.32
2022-12-15T07:33:54.711Z,-1.61
2022-12-15T07:36:22.730Z,-1.85
2022-12-15T07:38:51.553Z,-1.68
2022-12-15T07:41:20.320Z,-0.23
2022-12-15T07:43:48.543Z,0.63
2022-12-15T07:46:16.908Z,0.93
2022-12-15T07:48:50.419Z,1.96
2022-12-15T07:51:20.360Z,3.88
2022-12-15T07:53:50.206Z,4.72
2022-12-15T07:56:19.722Z,3.54
2022-12-15T07:58:47.916Z,2.20
2022-12-15T08:01:16.044Z,1.28
2022-12-15T08:03:44.905Z,0.63
2022-12-15T08:06:14.491Z,0.16
2022-12-15T08:08:45.004Z,-0.21
2022-12-15T08:11:21.203Z,-0.55
2022-12-15T08:14:02.542Z,-0.83
2022-12-15T08:16:33.285Z,-1.08
2022-12-15T08:19:01.218Z,-1.32
2022-12-15T08:21:31.203Z,-1.55
2022-12-15T08:24:00.871Z,-1.60
2022-12-15T08:26:31.029Z,-0.44
2022-12-15T08:31:54.078Z,0.65
2022-12-15T08:34:22.176Z,2.01
2022-12-15T08:36:50.630Z,2.84
2022-12-15T08:39:18.367Z,2.44
2022-12-15T08:41:46.241Z,2.01
2022-12-15T08:44:13.964Z,1.24
2022-12-15T08:46:41.706Z,0.40
2022-12-15T08:49:10.213Z,-0.22
2022-12-15T08:51:37.932Z,-0.70
2022-12-15T08:54:05.636Z,-1.05
2022-12-15T08:56:33.312Z,-1.29
2022-12-15T08:59:02.220Z,-1.49
2022-12-15T09:01:32.406Z,-1.38
2022-12-15T09:04:01.326Z,-0.84
2022-12-15T09:06:32.012Z,-0.57
2022-12-15T09:09:03.156Z,-0.16
2022-12-15T09:11:31.393Z,0.20
2022-12-15T09:13:59.136Z,0.43
2022-12-15T09:16:27.883Z,0.62
2022-12-15T09:18:58.037Z,0.75
2022-12-15T09:21:26.885Z,0.86
2022-12-15T09:24:00.531Z,0.92
2022-12-15T09:26:31.190Z,0.91
2022-12-15T09:28:59.237Z,0.89
2022-12-15T09:31:29.865Z,0.80
2022-12-15T09:33:59.738Z,0.72
2022-12-15T09:36:28.515Z,0.73
2022-12-15T09:38:56.323Z,0.85
2022-12-15T09:41:27.183Z,1.15
2022-12-15T09:43:58.988Z,1.59
2022-12-15T09:46:50.357Z,1.75
2022-12-15T09:49:38.073Z,1.74
2022-12-15T09:52:29.154Z,2.15
2022-12-15T09:55:01.753Z,2.61
2022-12-15T09:57:53.068Z,2.99
2022-12-15T10:00:33.109Z,3.67
2022-12-15T10:03:01.044Z,3.43
2022-12-15T10:06:14.541Z,2.31
2022-12-15T10:08:43.845Z,1.13
2022-12-15T10:11:20.361Z,0.45
2022-12-15T10:14:26.007Z,-0.12
2022-12-15T10:17:12.092Z,-0.62
2022-12-15T10:19:52.020Z,-0.93
2022-12-15T10:22:24.940Z,-1.15
2022-12-15T10:25:11.127Z,-1.34
2022-12-15T10:28:17.859Z,-0.97
2022-12-15T10:31:02.234Z,0.64
2022-12-15T10:33:39.522Z,1.42
2022-12-15T10:36:14.916Z,1.98
2022-12-15T10:38:47.352Z,2.04
2022-12-15T10:41:23.333Z,1.90
2022-12-15T10:43:52.526Z,2.12
2022-12-15T10:46:22.797Z,2.09
2022-12-15T10:49:07.084Z,1.90
2022-12-15T10:51:51.251Z,1.84
2022-12-15T10:54:19.022Z,2.12
2022-12-15T10:56:58.157Z,2.15
2022-12-15T10:59:31.706Z,2.26
2022-12-15T11:02:26.149Z,2.35
2022-12-15T11:05:05.312Z,2.41
2022-12-15T11:07:42.711Z,2.17
2022-12-15T11:10:50.566Z,1.39
2022-12-15T11:13:22.480Z,0.57
2022-12-15T11:15:53.066Z,0.09
2022-12-15T11:18:41.971Z,0.35
2022-12-15T11:21:18.595Z,0.53
2022-12-15T11:23:52.370Z,0.85
2022-12-15T11:26:58.675Z,1.04
2022-12-15T11:29:34.472Z,0.80
2022-12-15T11:32:06.910Z,0.64
2022-12-15T11:34:44.244Z,0.65
2022-12-15T11:37:36.504Z,0.84
2022-12-15T11:40:40.106Z,0.77
2022-12-15T11:43:45.671Z,0.85
2022-12-15T11:46:24.331Z,0.89
2022-12-15T11:48:58.090Z,1.10
2022-12-15T11:51:49.964Z,1.46
2022-12-15T11:54:42.630Z,1.74
2022-12-15T11:57:22.276Z,1.95
2022-12-15T12:00:28.339Z,2.24
2022-12-15T12:03:16.265Z,2.62
2022-12-15T12:06:29.343Z,3.01
2022-12-15T12:09:07.350Z,2.59
2022-12-15T12:11:43.806Z,1.48
2022-12-15T12:14:30.216Z,0.60
2022-12-15T12:17:11.496Z,-0.04
2022-12-15T12:19:58.003Z,-0.50
2022-12-15T12:22:40.780Z,-0.86
2022-12-15T12:25:20.759Z,-1.16
2022-12-15T12:27:52.965Z,-1.39
2022-12-15T12:30:25.066Z,-1.15
2022-12-15T12:33:02.031Z,0.23
2022-12-15T12:35:55.261Z,1.08
2022-12-15T12:38:31.306Z,1.85
2022-12-15T12:41:18.909Z,2.22
2022-12-15T12:43:58.880Z,2.44
2022-12-15T12:46:48.777Z,2.53
2022-12-15T12:49:26.897Z,2.39
2022-12-15T12:51:58.662Z,2.25
2022-12-15T12:54:35.312Z,2.27
2022-12-15T12:57:31.875Z,2.60
2022-12-15T13:00:13.026Z,2.43
2022-12-15T13:02:50.504Z,1.41
2022-12-15T13:05:37.215Z,0.39
2022-12-15T13:08:10.852Z,-0.44
2022-12-15T13:10:41.284Z,-0.97
2022-12-15T13:13:27.745Z,-0.95
2022-12-15T13:16:27.623Z,-0.00
2022-12-15T13:19:09.007Z,0.17
2022-12-15T13:21:45.150Z,0.21
2022-12-15T13:24:26.074Z,0.23
2022-12-15T13:27:04.221Z,0.38
2022-12-15T13:29:35.018Z,0.79
2022-12-15T13:32:03.914Z,0.72
2022-12-15T13:34:38.991Z,0.52
2022-12-15T13:37:45.631Z,0.82
2022-12-15T13:40:22.701Z,1.53
2022-12-15T13:43:05.885Z,1.89
2022-12-15T13:45:44.222Z,1.73
2022-12-15T13:48:44.409Z,1.79
2022-12-15T13:51:14.919Z,1.71
2022-12-15T13:53:51.629Z,1.73
2022-12-15T13:56:23.402Z,1.74
2022-12-15T13:59:00.721Z,1.50
2022-12-15T14:01:32.980Z,1.26
2022-12-15T14:04:17.921Z,1.14
2022-12-15T14:06:53.676Z,0.99
2022-12-15T14:09:29.484Z,1.20
2022-12-15T14:11:57.917Z,1.91
2022-12-15T14:14:29.732Z,2.46
2022-12-15T14:17:18.014Z,2.87
2022-12-15T14:19:50.889Z,3.15
2022-12-15T14:22:28.512Z,3.71
2022-12-15T14:25:14.130Z,3.45
2022-12-15T14:27:42.040Z,1.91
2022-12-15T14:30:26.803Z,0.77
2022-12-15T14:32:59.610Z,-0.14
2022-12-15T14:35:32.109Z,-0.77
2022-12-15T14:38:02.762Z,-1.26
2022-12-15T14:40:31.232Z,-1.63
2022-12-15T14:42:59.444Z,-1.95
2022-12-15T14:45:31.212Z,-2.23
2022-12-15T14:51:02.601Z,0.07
2022-12-15T14:53:38.033Z,0.84
2022-12-15T14:56:27.612Z,1.42
2022-12-15T14:59:18.101Z,1.84
2022-12-15T15:01:59.612Z,2.03
2022-12-15T15:04:32.442Z,2.63
2022-12-15T15:07:06.231Z,2.75
2022-12-15T15:09:40.660Z,1.73
2022-12-15T15:12:18.194Z,0.68
2022-12-15T15:14:58.012Z,-0.09
2022-12-15T15:17:31.001Z,-0.70
2022-12-15T15:20:17.455Z,-1.17
2022-12-15T15:22:46.710Z,-1.60
2022-12-15T15:25:28.316Z,-1.88
2022-12-15T15:28:17.939Z,-2.15
2022-12-15T15:30:56.556Z,-1.77
2022-12-15T15:33:25.177Z,-0.09
2022-12-15T15:35:56.119Z,0.63
2022-12-15T15:38:26.917Z,0.96
2022-12-15T15:41:00.413Z,1.15
2022-12-15T15:43:28.963Z,1.35
2022-12-15T15:46:08.251Z,1.46
2022-12-15T15:48:41.704Z,1.48
2022-12-15T15:51:09.460Z,1.47
2022-12-15T15:53:37.734Z,1.53
2022-12-15T15:56:08.876Z,1.52
2022-12-15T15:58:36.890Z,1.56
2022-12-15T16:01:09.518Z,1.95
2022-12-15T16:03:41.299Z,2.05
2022-12-15T16:06:19.388Z,1.58
2022-12-15T16:08:50.121Z,0.72
2022-12-15T16:11:18.028Z,0.06
2022-12-15T16:13:45.929Z,-0.42
2022-12-15T16:16:19.740Z,-0.82
2022-12-15T16:18:47.657Z,-1.21
2022-12-15T16:21:16.772Z,-1.55
2022-12-15T16:23:47.702Z,-1.52
2022-12-15T16:26:19.599Z,-0.50
2022-12-15T16:28:48.899Z,-0.07
2022-12-15T16:31:37.289Z,0.16
2022-12-15T16:34:08.626Z,0.50
2022-12-15T16:36:36.525Z,0.57
2022-12-15T16:39:04.690Z,0.60
2022-12-15T16:41:32.853Z,0.63
2022-12-15T16:44:00.487Z,0.69
2022-12-15T16:46:28.218Z,1.11
2022-12-15T16:48:55.992Z,1.28
2022-12-15T16:51:23.628Z,1.23
2022-12-15T16:53:51.263Z,1.23
2022-12-15T16:56:19.256Z,1.26
2022-12-15T16:58:48.895Z,1.57
2022-12-15T17:01:22.143Z,1.72
2022-12-15T17:03:50.051Z,1.80
2022-12-15T17:06:17.853Z,1.59
2022-12-15T17:08:54.136Z,0.86
2022-12-15T17:11:24.565Z,0.16
2022-12-15T17:13:55.710Z,-0.35
2022-12-15T17:16:25.783Z,-0.76
2022-12-15T17:18:54.341Z,-1.08
2022-12-15T17:21:53.230Z,-1.39
2022-12-15T17:24:22.349Z,-1.67
2022-12-15T17:26:50.649Z,-1.87
2022-12-15T17:29:23.451Z,-2.03
2022-12-15T17:31:51.335Z,-1.60
2022-12-15T17:34:27.209Z,-0.39
2022-12-15T17:36:56.672Z,-0.02
2022-12-15T17:39:25.788Z,0.21
2022-12-15T17:42:02.724Z,0.83
2022-12-15T17:44:36.925Z,1.15
2022-12-15T17:47:07.836Z,1.36
2022-12-15T17:49:38.012Z,1.50
2022-12-15T17:52:09.182Z,1.83
2022-12-15T17:54:36.927Z,2.18
2022-12-15T17:57:04.642Z,2.40
2022-12-15T17:59:32.317Z,2.54
2022-12-15T18:02:00.092Z,2.28
2022-12-15T18:04:27.969Z,1.33
2022-12-15T18:07:01.456Z,0.56
2022-12-15T18:09:30.052Z,-0.01
2022-12-15T18:11:58.113Z,-0.46
2022-12-15T18:14:27.421Z,-0.85
2022-12-15T18:16:55.372Z,-1.17
2022-12-15T18:19:23.424Z,-1.43
2022-12-15T18:21:51.108Z,-1.65
2022-12-15T18:24:21.636Z,-1.85
2022-12-15T18:26:49.303Z,-1.63
2022-12-15T18:29:18.226Z,-0.32
2022-12-15T18:31:48.357Z,0.37
2022-12-15T18:34:18.893Z,0.92
2022-12-15T18:36:46.714Z,1.53
2022-12-15T18:39:23.249Z,1.84
2022-12-15T18:41:52.529Z,1.96
2022-12-15T18:44:26.074Z,2.23
2022-12-15T18:46:55.098Z,3.54
2022-12-15T18:49:23.796Z,4.25
2022-12-15T18:51:51.724Z,3.12
2022-12-15T18:54:22.212Z,1.98
2022-12-15T18:56:50.532Z,1.14
2022-12-15T18:59:19.455Z,0.49
2022-12-15T19:01:48.730Z,-0.07
2022-12-15T19:04:16.783Z,-0.54
2022-12-15T19:06:45.030Z,-0.93
2022-12-15T19:09:21.756Z,-1.23
2022-12-15T19:12:09.008Z,-1.49
2022-12-15T19:14:42.995Z,-1.75
2022-12-15T19:17:31.531Z,-1.96
2022-12-15T19:20:17.894Z,-2.20
2022-12-15T19:22:47.788Z,-1.83
2022-12-15T19:25:25.372Z,-0.48
2022-12-15T19:28:01.029Z,0.24
2022-12-15T19:30:36.921Z,0.61
2022-12-15T19:33:08.081Z,0.82
2022-12-15T19:35:37.189Z,0.84
2022-12-15T19:38:06.599Z,1.11
2022-12-15T19:40:37.531Z,1.86
2022-12-15T19:43:05.483Z,2.00
2022-12-15T19:45:33.716Z,1.23
2022-12-15T19:48:01.480Z,0.25
2022-12-15T19:50:33.327Z,-0.51
2022-12-15T19:53:03.532Z,-1.06
2022-12-15T19:55:34.156Z,-1.48
2022-12-15T19:58:27.512Z,-1.84
2022-12-15T20:00:58.449Z,-2.19
2022-12-15T20:03:27.404Z,-2.48
2022-12-15T20:05:57.324Z,-2.74
2022-12-15T20:08:28.168Z,-3.00
2022-12-15T20:10:56.502Z,-3.27
2022-12-15T20:13:26.414Z,-3.53
2022-12-15T20:15:55.013Z,-3.05
2022-12-15T20:18:22.793Z,-1.00
2022-12-15T20:20:50.840Z,-0.12
2022-12-15T20:23:27.750Z,0.11
2022-12-15T20:25:56.184Z,0.44
2022-12-15T20:28:27.269Z,0.29
2022-12-15T20:30:56.678Z,-0.73
2022-12-15T20:33:24.573Z,-1.57
2022-12-15T20:35:52.834Z,-2.19
2022-12-15T20:38:28.806Z,-2.69
2022-12-15T20:40:57.550Z,-3.12
2022-12-15T20:43:26.550Z,-3.49
2022-12-15T20:46:05.234Z,-3.82
2022-12-15T20:48:36.618Z,-4.15
2022-12-15T20:51:09.463Z,-4.44
2022-12-15T20:53:39.080Z,-4.24
2022-12-15T20:56:07.309Z,-2.68
2022-12-15T20:58:41.224Z,-1.98
2022-12-15T21:01:24.581Z,-1.73
2022-12-15T21:03:55.873Z,-1.33
2022-12-15T21:06:25.099Z,-0.90
2022-12-15T21:08:53.209Z,-0.92
2022-12-15T21:11:26.157Z,-0.76
2022-12-15T21:13:56.772Z,-0.86
2022-12-15T21:16:28.198Z,-0.91
2022-12-15T21:19:20.221Z,-0.73
2022-12-15T21:21:46.524Z,-0.73
2022-12-15T21:24:22.707Z,-0.97
2022-12-15T21:26:51.444Z,-1.09
2022-12-15T21:29:24.784Z,-1.24
2022-12-15T21:31:52.817Z,-1.19
2022-12-15T21:34:20.515Z,-1.13
2022-12-15T21:36:52.514Z,-0.99
2022-12-15T21:39:30.006Z,-0.94
2022-12-15T21:41:59.993Z,-1.08
2022-12-15T21:44:27.664Z,-1.18
2022-12-15T21:46:55.275Z,-1.22
2022-12-15T21:49:23.410Z,-1.20
2022-12-15T21:51:55.124Z,-1.08
2022-12-15T21:57:17.892Z,-1.12
2022-12-15T21:59:45.498Z,-0.46
2022-12-15T22:02:25.990Z,0.82
2022-12-15T22:04:54.832Z,1.69
2022-12-15T22:07:22.854Z,2.69
2022-12-15T22:09:51.750Z,3.73
2022-12-15T22:12:22.458Z,4.32
2022-12-15T22:14:50.216Z,4.75
2022-12-15T22:17:21.706Z,4.98
2022-12-15T22:19:49.346Z,5.13
2022-12-15T22:22:17.234Z,4.77
2022-12-15T22:24:44.948Z,2.96
2022-12-15T22:27:21.527Z,1.32
2022-12-15T22:29:50.184Z,0.04
2022-12-15T22:32:17.814Z,-0.90
2022-12-15T22:34:45.485Z,-1.72
2022-12-15T22:37:13.115Z,-2.45
2022-12-15T22:39:40.718Z,-3.03
2022-12-15T22:42:14.900Z,-3.53
2022-12-15T22:44:42.583Z,-4.00
2022-12-15T22:47:10.609Z,-4.43
2022-12-15T22:49:40.565Z,-4.13
2022-12-15T22:52:21.027Z,-2.28
2022-12-15T22:54:48.717Z,-0.98
2022-12-15T22:57:22.980Z,-0.36
2022-12-15T23:00:00.375Z,-0.10
2022-12-15T23:02:33.057Z,0.20
2022-12-15T23:05:01.929Z,1.07
2022-12-15T23:07:29.629Z,2.68
2022-12-15T23:10:17.569Z,2.94
2022-12-15T23:12:45.246Z,2.85
2022-12-15T23:15:31.594Z,2.78
2022-12-15T23:17:59.883Z,3.38
2022-12-15T23:20:27.567Z,4.18
2022-12-15T23:22:55.211Z,4.62
2022-12-15T23:25:22.863Z,4.82
2022-12-15T23:27:50.538Z,4.82
2022-12-15T23:30:18.463Z,4.91
2022-12-15T23:32:46.458Z,4.77
2022-12-15T23:35:14.635Z,4.68
2022-12-15T23:37:42.499Z,4.52
2022-12-15T23:40:10.997Z,5.12
2022-12-15T23:42:38.609Z,4.48
2022-12-15T23:45:07.106Z,2.76
2022-12-15T23:47:34.788Z,1.32
2022-12-15T23:50:02.479Z,0.21
2022-12-15T23:52:30.436Z,-0.68
2022-12-15T23:54:57.995Z,-1.45
2022-12-15T23:57:25.593Z,-2.09
2022-12-15T23:59:53.173Z,-2.64
